sensor_id;sensor_type;location;lat;lon;timestamp;P1;durP1;ratioP1;P2;durP2;ratioP2
34353;SDS011;20618;0.000;0.000;2023-12-20T00:01:54;9.93;;;4.68;;
34353;SDS011;20618;0.000;0.000;2023-12-20T00:04:20;11.43;;;4.07;;
34353;SDS011;20618;0.000;0.000;2023-12-20T00:06:47;11.15;;;4.95;;
34353;SDS011;20618;0.000;0.000;2023-12-20T00:09:13;9.80;;;4.55;;
34353;SDS011;20618;0.000;0.000;2023-12-20T00:11:40;12.23;;;4.43;;
34353;SDS011;20618;0.000;0.000;2023-12-20T00:14:07;10.57;;;4.85;;
34353;SDS011;20618;0.000;0.000;2023-12-20T00:16:33;9.43;;;4.18;;
34353;SDS011;20618;0.000;0.000;2023-12-20T00:19:01;15.75;;;4.82;;
34353;SDS011;20618;0.000;0.000;2023-12-20T00:21:27;12.63;;;4.72;;
34353;SDS011;20618;0.000;0.000;2023-12-20T00:23:53;11.02;;;4.97;;
34353;SDS011;20618;0.000;0.000;2023-12-20T00:26:19;9.85;;;4.45;;
34353;SDS011;20618;0.000;0.000;2023-12-20T00:28:47;9.73;;;4.82;;
34353;SDS011;20618;0.000;0.000;2023-12-20T00:31:13;8.00;;;3.75;;
34353;SDS011;20618;0.000;0.000;2023-12-20T00:33:39;8.75;;;4.57;;
34353;SDS011;20618;0.000;0.000;2023-12-20T00:36:08;13.23;;;4.53;;
34353;SDS011;20618;0.000;0.000;2023-12-20T00:38:34;16.50;;;4.85;;
34353;SDS011;20618;0.000;0.000;2023-12-20T00:41:01;10.23;;;4.65;;
34353;SDS011;20618;0.000;0.000;2023-12-20T00:43:27;14.07;;;4.63;;
34353;SDS011;20618;0.000;0.000;2023-12-20T00:45:54;9.57;;;4.63;;
34353;SDS011;20618;0.000;0.000;2023-12-20T00:48:21;7.03;;;4.55;;
34353;SDS011;20618;0.000;0.000;2023-12-20T00:50:47;11.00;;;4.60;;
34353;SDS011;20618;0.000;0.000;2023-12-20T00:53:13;11.05;;;4.22;;
34353;SDS011;20618;0.000;0.000;2023-12-20T00:55:39;9.38;;;4.90;;
34353;SDS011;20618;0.000;0.000;2023-12-20T00:58:05;13.35;;;4.30;;
34353;SDS011;20618;0.000;0.000;2023-12-20T01:00:32;9.40;;;4.38;;
34353;SDS011;20618;0.000;0.000;2023-12-20T01:02:58;11.93;;;4.68;;
34353;SDS011;20618;0.000;0.000;2023-12-20T01:05:24;9.30;;;4.32;;
34353;SDS011;20618;0.000;0.000;2023-12-20T01:07:50;9.38;;;5.13;;
34353;SDS011;20618;0.000;0.000;2023-12-20T01:10:17;11.32;;;4.32;;
34353;SDS011;20618;0.000;0.000;2023-12-20T01:12:44;10.15;;;4.70;;
34353;SDS011;20618;0.000;0.000;2023-12-20T01:15:10;11.43;;;4.82;;
34353;SDS011;20618;0.000;0.000;2023-12-20T01:17:36;8.02;;;4.78;;
34353;SDS011;20618;0.000;0.000;2023-12-20T01:20:02;12.55;;;4.00;;
34353;SDS011;20618;0.000;0.000;2023-12-20T01:22:29;10.18;;;4.20;;
34353;SDS011;20618;0.000;0.000;2023-12-20T01:24:55;10.40;;;4.38;;
34353;SDS011;20618;0.000;0.000;2023-12-20T01:27:22;10.25;;;4.25;;
34353;SDS011;20618;0.000;0.000;2023-12-20T01:29:48;9.75;;;3.95;;
34353;SDS011;20618;0.000;0.000;2023-12-20T01:32:14;9.20;;;4.00;;
34353;SDS011;20618;0.000;0.000;2023-12-20T01:34:40;9.98;;;4.18;;
34353;SDS011;20618;0.000;0.000;2023-12-20T01:37:07;9.05;;;4.10;;
34353;SDS011;20618;0.000;0.000;2023-12-20T01:39:34;10.00;;;4.38;;
34353;SDS011;20618;0.000;0.000;2023-12-20T01:42:00;10.60;;;3.83;;
34353;SDS011;20618;0.000;0.000;2023-12-20T01:44:27;8.88;;;4.25;;
34353;SDS011;20618;0.000;0.000;2023-12-20T01:46:54;11.20;;;4.68;;
34353;SDS011;20618;0.000;0.000;2023-12-20T01:49:21;9.32;;;4.45;;
34353;SDS011;20618;0.000;0.000;2023-12-20T01:51:47;10.65;;;4.32;;
34353;SDS011;20618;0.000;0.000;2023-12-20T01:54:14;12.88;;;4.43;;
34353;SDS011;20618;0.000;0.000;2023-12-20T01:56:40;10.90;;;4.55;;
34353;SDS011;20618;0.000;0.000;2023-12-20T01:59:06;10.10;;;4.15;;
34353;SDS011;20618;0.000;0.000;2023-12-20T02:01:34;11.15;;;4.45;;
34353;SDS011;20618;0.000;0.000;2023-12-20T02:04:01;12.23;;;4.40;;
34353;SDS011;20618;0.000;0.000;2023-12-20T02:06:30;9.23;;;4.35;;
34353;SDS011;20618;0.000;0.000;2023-12-20T02:08:57;11.80;;;4.80;;
34353;SDS011;20618;0.000;0.000;2023-12-20T02:11:24;7.50;;;3.92;;
34353;SDS011;20618;0.000;0.000;2023-12-20T02:13:51;11.75;;;4.50;;
34353;SDS011;20618;0.000;0.000;2023-12-20T02:16:17;6.43;;;4.10;;
34353;SDS011;20618;0.000;0.000;2023-12-20T02:18:44;9.77;;;3.92;;
34353;SDS011;20618;0.000;0.000;2023-12-20T02:21:10;11.27;;;4.68;;
34353;SDS011;20618;0.000;0.000;2023-12-20T02:23:36;11.40;;;4.53;;
34353;SDS011;20618;0.000;0.000;2023-12-20T02:26:03;9.98;;;4.10;;
34353;SDS011;20618;0.000;0.000;2023-12-20T02:28:31;9.18;;;4.43;;
34353;SDS011;20618;0.000;0.000;2023-12-20T02:30:57;9.43;;;4.22;;
34353;SDS011;20618;0.000;0.000;2023-12-20T02:33:24;9.20;;;4.40;;
34353;SDS011;20618;0.000;0.000;2023-12-20T02:35:50;10.02;;;4.45;;
34353;SDS011;20618;0.000;0.000;2023-12-20T02:38:17;9.07;;;3.92;;
34353;SDS011;20618;0.000;0.000;2023-12-20T02:40:44;10.43;;;4.25;;
34353;SDS011;20618;0.000;0.000;2023-12-20T02:43:10;12.15;;;4.57;;
34353;SDS011;20618;0.000;0.000;2023-12-20T02:45:36;11.32;;;4.10;;
34353;SDS011;20618;0.000;0.000;2023-12-20T02:48:03;9.77;;;4.05;;
34353;SDS011;20618;0.000;0.000;2023-12-20T02:50:29;10.18;;;4.18;;
34353;SDS011;20618;0.000;0.000;2023-12-20T02:52:55;8.25;;;4.45;;
34353;SDS011;20618;0.000;0.000;2023-12-20T02:55:22;10.13;;;4.10;;
34353;SDS011;20618;0.000;0.000;2023-12-20T02:57:49;8.45;;;3.88;;
34353;SDS011;20618;0.000;0.000;2023-12-20T03:00:15;8.70;;;4.22;;
34353;SDS011;20618;0.000;0.000;2023-12-20T03:02:41;9.13;;;4.18;;
34353;SDS011;20618;0.000;0.000;2023-12-20T03:05:08;8.40;;;4.70;;
34353;SDS011;20618;0.000;0.000;2023-12-20T03:07:36;9.43;;;4.22;;
34353;SDS011;20618;0.000;0.000;2023-12-20T03:10:03;9.60;;;3.95;;
34353;SDS011;20618;0.000;0.000;2023-12-20T03:12:29;7.85;;;4.00;;
34353;SDS011;20618;0.000;0.000;2023-12-20T03:14:55;8.88;;;4.20;;
34353;SDS011;20618;0.000;0.000;2023-12-20T03:17:21;8.88;;;4.38;;
34353;SDS011;20618;0.000;0.000;2023-12-20T03:19:47;9.35;;;3.75;;
34353;SDS011;20618;0.000;0.000;2023-12-20T03:22:14;8.52;;;3.92;;
34353;SDS011;20618;0.000;0.000;2023-12-20T03:24:40;9.07;;;4.20;;
34353;SDS011;20618;0.000;0.000;2023-12-20T03:27:06;7.43;;;3.60;;
34353;SDS011;20618;0.000;0.000;2023-12-20T03:29:32;9.05;;;4.10;;
34353;SDS011;20618;0.000;0.000;2023-12-20T03:31:59;7.47;;;4.50;;
34353;SDS011;20618;0.000;0.000;2023-12-20T03:34:26;7.50;;;4.28;;
34353;SDS011;20618;0.000;0.000;2023-12-20T03:36:54;7.63;;;4.20;;
34353;SDS011;20618;0.000;0.000;2023-12-20T03:39:20;7.43;;;4.32;;
34353;SDS011;20618;0.000;0.000;2023-12-20T03:41:47;7.78;;;3.45;;
34353;SDS011;20618;0.000;0.000;2023-12-20T03:44:13;9.68;;;4.70;;
34353;SDS011;20618;0.000;0.000;2023-12-20T03:46:39;8.20;;;4.15;;
34353;SDS011;20618;0.000;0.000;2023-12-20T03:49:05;6.13;;;3.70;;
34353;SDS011;20618;0.000;0.000;2023-12-20T03:51:31;7.28;;;3.92;;
34353;SDS011;20618;0.000;0.000;2023-12-20T03:53:57;10.30;;;3.97;;
34353;SDS011;20618;0.000;0.000;2023-12-20T03:56:24;8.35;;;4.05;;
34353;SDS011;20618;0.000;0.000;2023-12-20T03:58:50;7.90;;;3.80;;
34353;SDS011;20618;0.000;0.000;2023-12-20T04:01:16;7.90;;;3.90;;
34353;SDS011;20618;0.000;0.000;2023-12-20T04:03:42;7.95;;;3.55;;
34353;SDS011;20618;0.000;0.000;2023-12-20T04:06:09;10.75;;;4.68;;
34353;SDS011;20618;0.000;0.000;2023-12-20T04:08:35;10.30;;;3.83;;
34353;SDS011;20618;0.000;0.000;2023-12-20T04:11:01;7.85;;;3.72;;
34353;SDS011;20618;0.000;0.000;2023-12-20T04:13:28;9.25;;;4.32;;
34353;SDS011;20618;0.000;0.000;2023-12-20T04:15:54;9.77;;;4.53;;
34353;SDS011;20618;0.000;0.000;2023-12-20T04:18:20;7.50;;;3.58;;
34353;SDS011;20618;0.000;0.000;2023-12-20T04:20:46;9.93;;;3.63;;
34353;SDS011;20618;0.000;0.000;2023-12-20T04:23:13;8.15;;;3.90;;
34353;SDS011;20618;0.000;0.000;2023-12-20T04:25:39;7.75;;;3.83;;
34353;SDS011;20618;0.000;0.000;2023-12-20T04:28:05;8.27;;;4.10;;
34353;SDS011;20618;0.000;0.000;2023-12-20T04:30:31;8.98;;;4.60;;
34353;SDS011;20618;0.000;0.000;2023-12-20T04:32:58;8.68;;;4.28;;
34353;SDS011;20618;0.000;0.000;2023-12-20T04:35:24;6.43;;;3.83;;
34353;SDS011;20618;0.000;0.000;2023-12-20T04:37:51;10.73;;;4.20;;
34353;SDS011;20618;0.000;0.000;2023-12-20T04:40:17;7.68;;;3.85;;
34353;SDS011;20618;0.000;0.000;2023-12-20T04:42:44;8.10;;;4.32;;
34353;SDS011;20618;0.000;0.000;2023-12-20T04:45:10;5.93;;;3.80;;
34353;SDS011;20618;0.000;0.000;2023-12-20T04:47:38;7.05;;;4.32;;
34353;SDS011;20618;0.000;0.000;2023-12-20T04:50:05;6.65;;;3.90;;
34353;SDS011;20618;0.000;0.000;2023-12-20T04:52:31;9.45;;;3.70;;
34353;SDS011;20618;0.000;0.000;2023-12-20T04:54:58;7.82;;;3.83;;
34353;SDS011;20618;0.000;0.000;2023-12-20T04:57:24;6.63;;;3.60;;
34353;SDS011;20618;0.000;0.000;2023-12-20T04:59:51;8.65;;;4.40;;
34353;SDS011;20618;0.000;0.000;2023-12-20T05:02:17;8.32;;;3.97;;
34353;SDS011;20618;0.000;0.000;2023-12-20T05:04:43;8.30;;;3.95;;
34353;SDS011;20618;0.000;0.000;2023-12-20T05:07:12;9.45;;;4.03;;
34353;SDS011;20618;0.000;0.000;2023-12-20T05:09:38;7.38;;;3.97;;
34353;SDS011;20618;0.000;0.000;2023-12-20T05:12:05;7.75;;;4.07;;
34353;SDS011;20618;0.000;0.000;2023-12-20T05:14:31;7.30;;;3.65;;
34353;SDS011;20618;0.000;0.000;2023-12-20T05:16:57;6.32;;;3.75;;
34353;SDS011;20618;0.000;0.000;2023-12-20T05:19:24;6.22;;;4.18;;
34353;SDS011;20618;0.000;0.000;2023-12-20T05:21:51;6.53;;;3.97;;
34353;SDS011;20618;0.000;0.000;2023-12-20T05:24:18;7.55;;;3.90;;
34353;SDS011;20618;0.000;0.000;2023-12-20T05:26:44;7.40;;;4.10;;
34353;SDS011;20618;0.000;0.000;2023-12-20T05:29:10;10.35;;;4.60;;
34353;SDS011;20618;0.000;0.000;2023-12-20T05:31:36;6.70;;;3.88;;
34353;SDS011;20618;0.000;0.000;2023-12-20T05:34:02;7.03;;;3.90;;
34353;SDS011;20618;0.000;0.000;2023-12-20T05:36:29;7.40;;;3.75;;
34353;SDS011;20618;0.000;0.000;2023-12-20T05:38:55;10.30;;;4.20;;
34353;SDS011;20618;0.000;0.000;2023-12-20T05:41:21;6.88;;;3.70;;
34353;SDS011;20618;0.000;0.000;2023-12-20T05:43:48;8.10;;;3.75;;
34353;SDS011;20618;0.000;0.000;2023-12-20T05:46:14;8.55;;;4.00;;
34353;SDS011;20618;0.000;0.000;2023-12-20T05:48:40;5.38;;;3.58;;
34353;SDS011;20618;0.000;0.000;2023-12-20T05:51:06;8.07;;;4.35;;
34353;SDS011;20618;0.000;0.000;2023-12-20T05:53:33;5.60;;;3.90;;
34353;SDS011;20618;0.000;0.000;2023-12-20T05:55:59;8.20;;;4.22;;
34353;SDS011;20618;0.000;0.000;2023-12-20T05:58:25;7.70;;;4.20;;
34353;SDS011;20618;0.000;0.000;2023-12-20T06:00:51;6.78;;;3.72;;
34353;SDS011;20618;0.000;0.000;2023-12-20T06:03:18;10.13;;;3.72;;
34353;SDS011;20618;0.000;0.000;2023-12-20T06:05:44;6.53;;;3.72;;
34353;SDS011;20618;0.000;0.000;2023-12-20T06:08:10;6.53;;;3.75;;
34353;SDS011;20618;0.000;0.000;2023-12-20T06:10:37;6.35;;;3.47;;
34353;SDS011;20618;0.000;0.000;2023-12-20T06:13:03;8.85;;;3.97;;
34353;SDS011;20618;0.000;0.000;2023-12-20T06:15:31;7.13;;;3.80;;
34353;SDS011;20618;0.000;0.000;2023-12-20T06:17:57;8.80;;;4.10;;
34353;SDS011;20618;0.000;0.000;2023-12-20T06:20:24;7.60;;;3.55;;
34353;SDS011;20618;0.000;0.000;2023-12-20T06:22:50;8.00;;;3.85;;
34353;SDS011;20618;0.000;0.000;2023-12-20T06:25:16;7.72;;;4.07;;
34353;SDS011;20618;0.000;0.000;2023-12-20T06:27:43;9.35;;;4.13;;
34353;SDS011;20618;0.000;0.000;2023-12-20T06:30:09;5.60;;;3.50;;
34353;SDS011;20618;0.000;0.000;2023-12-20T06:32:35;7.38;;;3.70;;
34353;SDS011;20618;0.000;0.000;2023-12-20T06:35:03;7.20;;;3.75;;
34353;SDS011;20618;0.000;0.000;2023-12-20T06:37:30;6.50;;;3.22;;
34353;SDS011;20618;0.000;0.000;2023-12-20T06:39:56;6.88;;;3.83;;
34353;SDS011;20618;0.000;0.000;2023-12-20T06:42:23;6.50;;;3.20;;
34353;SDS011;20618;0.000;0.000;2023-12-20T06:44:49;8.15;;;3.40;;
34353;SDS011;20618;0.000;0.000;2023-12-20T06:47:15;5.55;;;3.13;;
34353;SDS011;20618;0.000;0.000;2023-12-20T06:49:41;8.05;;;3.65;;
34353;SDS011;20618;0.000;0.000;2023-12-20T06:52:08;6.28;;;3.80;;
34353;SDS011;20618;0.000;0.000;2023-12-20T06:54:34;5.90;;;3.35;;
34353;SDS011;20618;0.000;0.000;2023-12-20T06:57:00;7.70;;;3.58;;
34353;SDS011;20618;0.000;0.000;2023-12-20T06:59:28;8.38;;;3.70;;
34353;SDS011;20618;0.000;0.000;2023-12-20T07:01:54;6.25;;;3.20;;
34353;SDS011;20618;0.000;0.000;2023-12-20T07:04:21;5.25;;;3.40;;
34353;SDS011;20618;0.000;0.000;2023-12-20T07:06:48;6.28;;;3.35;;
34353;SDS011;20618;0.000;0.000;2023-12-20T07:09:17;5.00;;;3.42;;
34353;SDS011;20618;0.000;0.000;2023-12-20T07:11:43;8.75;;;3.20;;
34353;SDS011;20618;0.000;0.000;2023-12-20T07:14:10;6.90;;;3.60;;
34353;SDS011;20618;0.000;0.000;2023-12-20T07:16:36;7.80;;;3.50;;
34353;SDS011;20618;0.000;0.000;2023-12-20T07:19:02;8.52;;;3.70;;
34353;SDS011;20618;0.000;0.000;2023-12-20T07:21:28;9.35;;;4.05;;
34353;SDS011;20618;0.000;0.000;2023-12-20T07:23:54;7.97;;;3.58;;
34353;SDS011;20618;0.000;0.000;2023-12-20T07:26:21;8.23;;;3.20;;
34353;SDS011;20618;0.000;0.000;2023-12-20T07:28:47;7.53;;;3.00;;
34353;SDS011;20618;0.000;0.000;2023-12-20T07:31:14;8.38;;;3.60;;
34353;SDS011;20618;0.000;0.000;2023-12-20T07:33:41;8.80;;;3.00;;
34353;SDS011;20618;0.000;0.000;2023-12-20T07:36:07;7.20;;;3.78;;
34353;SDS011;20618;0.000;0.000;2023-12-20T07:38:34;6.70;;;3.28;;
34353;SDS011;20618;0.000;0.000;2023-12-20T07:41:00;10.65;;;3.28;;
34353;SDS011;20618;0.000;0.000;2023-12-20T07:43:26;9.02;;;3.53;;
34353;SDS011;20618;0.000;0.000;2023-12-20T07:45:52;6.13;;;3.33;;
34353;SDS011;20618;0.000;0.000;2023-12-20T07:48:18;6.47;;;3.03;;
34353;SDS011;20618;0.000;0.000;2023-12-20T07:50:45;10.57;;;3.90;;
34353;SDS011;20618;0.000;0.000;2023-12-20T07:53:11;8.63;;;3.65;;
34353;SDS011;20618;0.000;0.000;2023-12-20T07:55:37;13.23;;;4.03;;
34353;SDS011;20618;0.000;0.000;2023-12-20T07:58:03;12.50;;;3.80;;
34353;SDS011;20618;0.000;0.000;2023-12-20T08:00:30;12.88;;;3.75;;
34353;SDS011;20618;0.000;0.000;2023-12-20T08:02:56;13.10;;;4.68;;
34353;SDS011;20618;0.000;0.000;2023-12-20T08:05:22;11.88;;;4.20;;
34353;SDS011;20618;0.000;0.000;2023-12-20T08:07:49;11.20;;;3.47;;
34353;SDS011;20618;0.000;0.000;2023-12-20T08:10:15;13.13;;;3.75;;
34353;SDS011;20618;0.000;0.000;2023-12-20T08:12:43;9.45;;;3.13;;
34353;SDS011;20618;0.000;0.000;2023-12-20T08:15:09;11.60;;;4.30;;
34353;SDS011;20618;0.000;0.000;2023-12-20T08:17:35;15.23;;;4.95;;
34353;SDS011;20618;0.000;0.000;2023-12-20T08:20:02;17.98;;;4.25;;
34353;SDS011;20618;0.000;0.000;2023-12-20T08:22:28;15.55;;;4.65;;
34353;SDS011;20618;0.000;0.000;2023-12-20T08:24:54;16.00;;;4.10;;
34353;SDS011;20618;0.000;0.000;2023-12-20T08:27:20;14.00;;;4.03;;
34353;SDS011;20618;0.000;0.000;2023-12-20T08:29:47;12.80;;;4.22;;
34353;SDS011;20618;0.000;0.000;2023-12-20T08:32:14;14.45;;;4.53;;
34353;SDS011;20618;0.000;0.000;2023-12-20T08:34:40;12.95;;;4.35;;
34353;SDS011;20618;0.000;0.000;2023-12-20T08:37:07;13.45;;;4.20;;
34353;SDS011;20618;0.000;0.000;2023-12-20T08:39:33;13.20;;;4.57;;
34353;SDS011;20618;0.000;0.000;2023-12-20T08:41:59;15.13;;;4.68;;
34353;SDS011;20618;0.000;0.000;2023-12-20T08:44:25;16.88;;;4.60;;
34353;SDS011;20618;0.000;0.000;2023-12-20T08:46:51;18.65;;;4.25;;
34353;SDS011;20618;0.000;0.000;2023-12-20T08:49:18;13.38;;;4.13;;
34353;SDS011;20618;0.000;0.000;2023-12-20T08:51:44;13.65;;;4.43;;
34353;SDS011;20618;0.000;0.000;2023-12-20T08:54:10;17.92;;;4.70;;
34353;SDS011;20618;0.000;0.000;2023-12-20T08:56:38;17.50;;;4.75;;
34353;SDS011;20618;0.000;0.000;2023-12-20T08:59:04;18.25;;;5.05;;
34353;SDS011;20618;0.000;0.000;2023-12-20T09:01:30;19.90;;;4.38;;
34353;SDS011;20618;0.000;0.000;2023-12-20T09:03:56;17.00;;;4.55;;
34353;SDS011;20618;0.000;0.000;2023-12-20T09:06:23;20.30;;;5.20;;
34353;SDS011;20618;0.000;0.000;2023-12-20T09:08:50;27.33;;;6.00;;
34353;SDS011;20618;0.000;0.000;2023-12-20T09:11:16;19.35;;;5.22;;
34353;SDS011;20618;0.000;0.000;2023-12-20T09:13:42;19.52;;;5.25;;
34353;SDS011;20618;0.000;0.000;2023-12-20T09:16:09;20.02;;;4.90;;
34353;SDS011;20618;0.000;0.000;2023-12-20T09:18:36;19.13;;;4.20;;
34353;SDS011;20618;0.000;0.000;2023-12-20T09:21:02;19.35;;;4.38;;
34353;SDS011;20618;0.000;0.000;2023-12-20T09:23:28;22.85;;;5.07;;
34353;SDS011;20618;0.000;0.000;2023-12-20T09:25:54;18.75;;;4.63;;
34353;SDS011;20618;0.000;0.000;2023-12-20T09:28:20;19.00;;;5.05;;
34353;SDS011;20618;0.000;0.000;2023-12-20T09:30:46;25.30;;;5.00;;
34353;SDS011;20618;0.000;0.000;2023-12-20T09:33:13;16.23;;;4.65;;
34353;SDS011;20618;0.000;0.000;2023-12-20T09:35:39;22.45;;;5.10;;
34353;SDS011;20618;0.000;0.000;2023-12-20T09:38:06;25.40;;;5.28;;
34353;SDS011;20618;0.000;0.000;2023-12-20T09:40:32;21.95;;;5.43;;
34353;SDS011;20618;0.000;0.000;2023-12-20T09:43:08;22.67;;;5.47;;
34353;SDS011;20618;0.000;0.000;2023-12-20T09:45:35;27.20;;;5.13;;
34353;SDS011;20618;0.000;0.000;2023-12-20T09:48:01;26.02;;;5.40;;
34353;SDS011;20618;0.000;0.000;2023-12-20T09:50:30;23.50;;;5.38;;
34353;SDS011;20618;0.000;0.000;2023-12-20T09:52:57;25.65;;;5.95;;
34353;SDS011;20618;0.000;0.000;2023-12-20T09:55:25;24.73;;;6.25;;
34353;SDS011;20618;0.000;0.000;2023-12-20T09:57:51;24.95;;;5.47;;
34353;SDS011;20618;0.000;0.000;2023-12-20T10:00:17;28.55;;;5.20;;
34353;SDS011;20618;0.000;0.000;2023-12-20T10:02:50;21.85;;;4.68;;
34353;SDS011;20618;0.000;0.000;2023-12-20T10:05:23;37.05;;;5.35;;
34353;SDS011;20618;0.000;0.000;2023-12-20T10:07:52;21.25;;;5.10;;
34353;SDS011;20618;0.000;0.000;2023-12-20T10:10:18;23.20;;;5.07;;
34353;SDS011;20618;0.000;0.000;2023-12-20T10:13:03;28.58;;;6.07;;
34353;SDS011;20618;0.000;0.000;2023-12-20T10:15:32;33.50;;;6.28;;
34353;SDS011;20618;0.000;0.000;2023-12-20T10:17:58;29.48;;;6.05;;
34353;SDS011;20618;0.000;0.000;2023-12-20T10:20:25;24.63;;;5.10;;
34353;SDS011;20618;0.000;0.000;2023-12-20T10:22:51;28.27;;;5.53;;
34353;SDS011;20618;0.000;0.000;2023-12-20T10:25:21;32.10;;;6.30;;
34353;SDS011;20618;0.000;0.000;2023-12-20T10:27:47;25.05;;;5.35;;
34353;SDS011;20618;0.000;0.000;2023-12-20T10:30:14;33.83;;;5.90;;
34353;SDS011;20618;0.000;0.000;2023-12-20T10:32:40;31.90;;;6.70;;
34353;SDS011;20618;0.000;0.000;2023-12-20T10:35:07;29.50;;;5.82;;
34353;SDS011;20618;0.000;0.000;2023-12-20T10:37:36;29.70;;;5.50;;
34353;SDS011;20618;0.000;0.000;2023-12-20T10:40:03;25.58;;;5.72;;
34353;SDS011;20618;0.000;0.000;2023-12-20T10:42:31;27.05;;;5.68;;
34353;SDS011;20618;0.000;0.000;2023-12-20T10:45:01;31.75;;;5.78;;
34353;SDS011;20618;0.000;0.000;2023-12-20T10:47:28;28.77;;;5.53;;
34353;SDS011;20618;0.000;0.000;2023-12-20T10:49:57;38.33;;;6.28;;
34353;SDS011;20618;0.000;0.000;2023-12-20T10:52:23;28.90;;;6.68;;
34353;SDS011;20618;0.000;0.000;2023-12-20T10:54:50;24.15;;;5.72;;
34353;SDS011;20618;0.000;0.000;2023-12-20T10:57:17;26.95;;;5.63;;
34353;SDS011;20618;0.000;0.000;2023-12-20T10:59:44;28.08;;;6.20;;
34353;SDS011;20618;0.000;0.000;2023-12-20T11:02:13;30.33;;;5.68;;
34353;SDS011;20618;0.000;0.000;2023-12-20T11:04:44;21.08;;;5.43;;
34353;SDS011;20618;0.000;0.000;2023-12-20T11:09:41;24.42;;;5.45;;
34353;SDS011;20618;0.000;0.000;2023-12-20T11:14:52;23.17;;;5.38;;
34353;SDS011;20618;0.000;0.000;2023-12-20T11:17:21;24.20;;;5.20;;
34353;SDS011;20618;0.000;0.000;2023-12-20T11:22:22;23.73;;;5.10;;
34353;SDS011;20618;0.000;0.000;2023-12-20T11:24:50;34.90;;;6.63;;
34353;SDS011;20618;0.000;0.000;2023-12-20T11:27:16;28.23;;;6.00;;
34353;SDS011;20618;0.000;0.000;2023-12-20T11:29:50;29.70;;;6.10;;
34353;SDS011;20618;0.000;0.000;2023-12-20T11:32:38;24.98;;;6.05;;
34353;SDS011;20618;0.000;0.000;2023-12-20T11:35:24;40.33;;;7.15;;
34353;SDS011;20618;0.000;0.000;2023-12-20T11:37:51;29.45;;;5.63;;
34353;SDS011;20618;0.000;0.000;2023-12-20T11:40:17;33.38;;;6.20;;
34353;SDS011;20618;0.000;0.000;2023-12-20T11:42:44;31.63;;;6.07;;
34353;SDS011;20618;0.000;0.000;2023-12-20T11:45:12;35.42;;;5.97;;
34353;SDS011;20618;0.000;0.000;2023-12-20T11:47:43;21.33;;;6.15;;
34353;SDS011;20618;0.000;0.000;2023-12-20T11:50:10;28.02;;;5.55;;
34353;SDS011;20618;0.000;0.000;2023-12-20T11:52:36;20.35;;;4.97;;
34353;SDS011;20618;0.000;0.000;2023-12-20T11:55:02;26.75;;;6.07;;
34353;SDS011;20618;0.000;0.000;2023-12-20T11:57:29;39.85;;;6.72;;
34353;SDS011;20618;0.000;0.000;2023-12-20T11:59:56;29.92;;;5.80;;
34353;SDS011;20618;0.000;0.000;2023-12-20T12:02:22;22.10;;;5.28;;
34353;SDS011;20618;0.000;0.000;2023-12-20T12:04:49;25.88;;;5.38;;
34353;SDS011;20618;0.000;0.000;2023-12-20T12:07:18;30.30;;;6.07;;
34353;SDS011;20618;0.000;0.000;2023-12-20T12:09:45;27.02;;;6.22;;
34353;SDS011;20618;0.000;0.000;2023-12-20T12:12:12;27.50;;;5.93;;
34353;SDS011;20618;0.000;0.000;2023-12-20T12:14:38;31.00;;;6.18;;
34353;SDS011;20618;0.000;0.000;2023-12-20T12:17:12;24.52;;;5.45;;
34353;SDS011;20618;0.000;0.000;2023-12-20T12:19:39;29.08;;;6.03;;
34353;SDS011;20618;0.000;0.000;2023-12-20T12:22:06;25.63;;;6.38;;
34353;SDS011;20618;0.000;0.000;2023-12-20T12:24:34;26.58;;;5.90;;
34353;SDS011;20618;0.000;0.000;2023-12-20T12:27:00;28.45;;;5.57;;
34353;SDS011;20618;0.000;0.000;2023-12-20T12:29:27;35.47;;;7.18;;
34353;SDS011;20618;0.000;0.000;2023-12-20T12:31:53;33.53;;;6.82;;
34353;SDS011;20618;0.000;0.000;2023-12-20T12:34:19;29.52;;;5.60;;
34353;SDS011;20618;0.000;0.000;2023-12-20T12:36:45;26.25;;;6.07;;
34353;SDS011;20618;0.000;0.000;2023-12-20T12:39:13;35.45;;;6.85;;
34353;SDS011;20618;0.000;0.000;2023-12-20T12:41:42;74.85;;;11.48;;
34353;SDS011;20618;0.000;0.000;2023-12-20T12:44:08;68.30;;;13.23;;
34353;SDS011;20618;0.000;0.000;2023-12-20T12:46:35;65.72;;;11.80;;
34353;SDS011;20618;0.000;0.000;2023-12-20T12:49:01;52.28;;;11.30;;
34353;SDS011;20618;0.000;0.000;2023-12-20T12:51:27;51.75;;;8.25;;
34353;SDS011;20618;0.000;0.000;2023-12-20T12:53:53;35.72;;;7.53;;
34353;SDS011;20618;0.000;0.000;2023-12-20T12:56:19;38.70;;;8.05;;
34353;SDS011;20618;0.000;0.000;2023-12-20T12:58:47;47.25;;;7.65;;
34353;SDS011;20618;0.000;0.000;2023-12-20T13:01:13;29.88;;;6.50;;
34353;SDS011;20618;0.000;0.000;2023-12-20T13:03:40;36.75;;;6.80;;
34353;SDS011;20618;0.000;0.000;2023-12-20T13:06:06;44.47;;;6.80;;
34353;SDS011;20618;0.000;0.000;2023-12-20T13:08:34;34.40;;;7.85;;
34353;SDS011;20618;0.000;0.000;2023-12-20T13:11:00;40.22;;;7.18;;
34353;SDS011;20618;0.000;0.000;2023-12-20T13:13:29;32.97;;;6.70;;
34353;SDS011;20618;0.000;0.000;2023-12-20T13:15:55;30.25;;;7.03;;
34353;SDS011;20618;0.000;0.000;2023-12-20T13:18:22;29.08;;;6.30;;
34353;SDS011;20618;0.000;0.000;2023-12-20T13:20:49;24.45;;;6.07;;
34353;SDS011;20618;0.000;0.000;2023-12-20T13:23:15;40.58;;;6.82;;
34353;SDS011;20618;0.000;0.000;2023-12-20T13:25:43;33.15;;;6.78;;
34353;SDS011;20618;0.000;0.000;2023-12-20T13:28:12;28.35;;;6.28;;
34353;SDS011;20618;0.000;0.000;2023-12-20T13:30:39;27.90;;;6.13;;
34353;SDS011;20618;0.000;0.000;2023-12-20T13:33:05;34.75;;;6.75;;
34353;SDS011;20618;0.000;0.000;2023-12-20T13:35:32;32.22;;;6.43;;
34353;SDS011;20618;0.000;0.000;2023-12-20T13:37:58;28.50;;;6.10;;
34353;SDS011;20618;0.000;0.000;2023-12-20T13:40:25;22.15;;;5.93;;
34353;SDS011;20618;0.000;0.000;2023-12-20T13:42:53;34.28;;;6.10;;
34353;SDS011;20618;0.000;0.000;2023-12-20T13:45:20;27.13;;;5.90;;
34353;SDS011;20618;0.000;0.000;2023-12-20T13:47:46;25.00;;;6.30;;
34353;SDS011;20618;0.000;0.000;2023-12-20T13:50:12;30.77;;;6.03;;
34353;SDS011;20618;0.000;0.000;2023-12-20T13:52:38;26.63;;;6.25;;
34353;SDS011;20618;0.000;0.000;2023-12-20T13:55:05;30.88;;;6.22;;
34353;SDS011;20618;0.000;0.000;2023-12-20T13:57:33;30.58;;;6.07;;
34353;SDS011;20618;0.000;0.000;2023-12-20T14:00:03;30.02;;;6.30;;
34353;SDS011;20618;0.000;0.000;2023-12-20T14:02:30;29.80;;;5.78;;
34353;SDS011;20618;0.000;0.000;2023-12-20T14:04:56;22.92;;;5.63;;
34353;SDS011;20618;0.000;0.000;2023-12-20T14:07:22;30.65;;;5.97;;
34353;SDS011;20618;0.000;0.000;2023-12-20T14:09:49;27.10;;;6.15;;
34353;SDS011;20618;0.000;0.000;2023-12-20T14:12:16;25.10;;;6.30;;
34353;SDS011;20618;0.000;0.000;2023-12-20T14:14:42;25.70;;;5.60;;
34353;SDS011;20618;0.000;0.000;2023-12-20T14:17:09;29.67;;;6.30;;
34353;SDS011;20618;0.000;0.000;2023-12-20T14:19:36;29.20;;;6.63;;
34353;SDS011;20618;0.000;0.000;2023-12-20T14:22:02;30.90;;;6.43;;
34353;SDS011;20618;0.000;0.000;2023-12-20T14:24:29;38.85;;;6.93;;
34353;SDS011;20618;0.000;0.000;2023-12-20T14:26:55;25.35;;;5.68;;
34353;SDS011;20618;0.000;0.000;2023-12-20T14:29:23;33.67;;;6.38;;
34353;SDS011;20618;0.000;0.000;2023-12-20T14:31:49;33.95;;;6.63;;
34353;SDS011;20618;0.000;0.000;2023-12-20T14:34:16;30.45;;;5.72;;
34353;SDS011;20618;0.000;0.000;2023-12-20T14:36:42;28.90;;;5.65;;
34353;SDS011;20618;0.000;0.000;2023-12-20T14:39:08;31.67;;;6.32;;
34353;SDS011;20618;0.000;0.000;2023-12-20T14:41:38;32.65;;;6.22;;
34353;SDS011;20618;0.000;0.000;2023-12-20T14:44:07;27.52;;;5.43;;
34353;SDS011;20618;0.000;0.000;2023-12-20T14:46:33;31.13;;;6.68;;
34353;SDS011;20618;0.000;0.000;2023-12-20T14:48:59;28.05;;;6.00;;
34353;SDS011;20618;0.000;0.000;2023-12-20T14:51:28;39.47;;;7.07;;
34353;SDS011;20618;0.000;0.000;2023-12-20T14:53:54;31.45;;;7.22;;
34353;SDS011;20618;0.000;0.000;2023-12-20T14:56:20;33.13;;;7.00;;
34353;SDS011;20618;0.000;0.000;2023-12-20T14:58:49;31.65;;;6.75;;